sensor_id;sensor_type;location;lat;lon;timestamp;P1;durP1;ratioP1;P2;durP2;ratioP2
8219;SDS011;4151;51.110;7.020;2022-07-29T00:00:42;8.60;;;1.60;;
8219;SDS011;4151;51.110;7.020;2022-07-29T00:03:11;6.70;;;1.60;;
8219;SDS011;4151;51.110;7.020;2022-07-29T00:05:40;5.03;;;1.67;;
8219;SDS011;4151;51.110;7.020;2022-07-29T00:08:07;3.83;;;2.00;;
8219;SDS011;4151;51.110;7.020;2022-07-29T00:10:33;4.17;;;1.90;;
8219;SDS011;4151;51.110;7.020;2022-07-29T00:12:58;4.30;;;2.03;;
8219;SDS011;4151;51.110;7.020;2022-07-29T00:15:24;11.43;;;2.10;;
8219;SDS011;4151;51.110;7.020;2022-07-29T00:17:50;7.13;;;2.30;;
8219;SDS011;4151;51.110;7.020;2022-07-29T00:20:15;3.17;;;1.40;;
8219;SDS011;4151;51.110;7.020;2022-07-29T00:22:41;5.00;;;1.80;;
8219;SDS011;4151;51.110;7.020;2022-07-29T00:25:06;5.27;;;1.93;;
8219;SDS011;4151;51.110;7.020;2022-07-29T00:27:33;5.70;;;1.70;;
8219;SDS011;4151;51.110;7.020;2022-07-29T00:29:59;4.03;;;2.10;;
8219;SDS011;4151;51.110;7.020;2022-07-29T00:32:24;3.33;;;2.00;;
8219;SDS011;4151;51.110;7.020;2022-07-29T00:34:50;2.20;;;1.40;;
8219;SDS011;4151;51.110;7.020;2022-07-29T00:37:34;2.90;;;1.60;;
8219;SDS011;4151;51.110;7.020;2022-07-29T00:40:00;2.27;;;1.20;;
8219;SDS011;4151;51.110;7.020;2022-07-29T00:42:25;5.33;;;1.73;;
8219;SDS011;4151;51.110;7.020;2022-07-29T00:44:52;9.03;;;1.93;;
8219;SDS011;4151;51.110;7.020;2022-07-29T00:47:17;8.20;;;1.50;;
8219;SDS011;4151;51.110;7.020;2022-07-29T00:49:43;3.60;;;1.83;;
8219;SDS011;4151;51.110;7.020;2022-07-29T00:52:09;4.50;;;1.87;;
8219;SDS011;4151;51.110;7.020;2022-07-29T00:54:36;3.27;;;1.53;;
8219;SDS011;4151;51.110;7.020;2022-07-29T00:57:05;4.80;;;1.73;;
8219;SDS011;4151;51.110;7.020;2022-07-29T00:59:31;5.43;;;1.83;;
8219;SDS011;4151;51.110;7.020;2022-07-29T01:01:57;5.53;;;1.80;;
8219;SDS011;4151;51.110;7.020;2022-07-29T01:04:23;5.03;;;1.90;;
8219;SDS011;4151;51.110;7.020;2022-07-29T01:06:49;5.97;;;1.77;;
8219;SDS011;4151;51.110;7.020;2022-07-29T01:09:15;17.47;;;2.20;;
8219;SDS011;4151;51.110;7.020;2022-07-29T01:11:44;7.40;;;2.03;;
8219;SDS011;4151;51.110;7.020;2022-07-29T01:14:12;4.50;;;1.73;;
8219;SDS011;4151;51.110;7.020;2022-07-29T01:16:42;3.10;;;1.20;;
8219;SDS011;4151;51.110;7.020;2022-07-29T01:22:24;7.23;;;1.53;;
8219;SDS011;4151;51.110;7.020;2022-07-29T01:30:28;5.53;;;1.80;;
8219;SDS011;4151;51.110;7.020;2022-07-29T01:32:56;10.83;;;1.70;;
8219;SDS011;4151;51.110;7.020;2022-07-29T01:35:28;2.73;;;2.00;;
8219;SDS011;4151;51.110;7.020;2022-07-29T01:38:05;13.60;;;2.03;;
8219;SDS011;4151;51.110;7.020;2022-07-29T01:40:49;4.20;;;1.90;;
8219;SDS011;4151;51.110;7.020;2022-07-29T01:43:20;5.60;;;1.97;;
8219;SDS011;4151;51.110;7.020;2022-07-29T01:45:56;2.53;;;1.43;;
8219;SDS011;4151;51.110;7.020;2022-07-29T01:48:29;5.03;;;2.00;;
8219;SDS011;4151;51.110;7.020;2022-07-29T01:51:03;5.27;;;1.97;;
8219;SDS011;4151;51.110;7.020;2022-07-29T01:53:52;5.73;;;1.83;;
8219;SDS011;4151;51.110;7.020;2022-07-29T01:56:24;4.63;;;1.63;;
8219;SDS011;4151;51.110;7.020;2022-07-29T01:58:54;2.70;;;1.47;;
8219;SDS011;4151;51.110;7.020;2022-07-29T02:01:21;4.63;;;2.07;;
8219;SDS011;4151;51.110;7.020;2022-07-29T02:03:50;2.00;;;1.77;;
8219;SDS011;4151;51.110;7.020;2022-07-29T02:06:19;4.93;;;1.90;;
8219;SDS011;4151;51.110;7.020;2022-07-29T02:08:47;5.07;;;2.13;;
8219;SDS011;4151;51.110;7.020;2022-07-29T02:11:14;5.30;;;1.83;;
8219;SDS011;4151;51.110;7.020;2022-07-29T02:13:40;11.13;;;1.73;;
8219;SDS011;4151;51.110;7.020;2022-07-29T02:16:07;5.93;;;1.83;;
8219;SDS011;4151;51.110;7.020;2022-07-29T02:18:36;4.83;;;1.73;;
8219;SDS011;4151;51.110;7.020;2022-07-29T02:21:04;6.30;;;1.60;;
8219;SDS011;4151;51.110;7.020;2022-07-29T02:23:30;6.40;;;1.30;;
8219;SDS011;4151;51.110;7.020;2022-07-29T02:25:57;3.90;;;1.57;;
8219;SDS011;4151;51.110;7.020;2022-07-29T02:28:25;2.10;;;1.57;;
8219;SDS011;4151;51.110;7.020;2022-07-29T02:30:53;4.70;;;2.43;;
8219;SDS011;4151;51.110;7.020;2022-07-29T02:33:22;1.80;;;1.43;;
8219;SDS011;4151;51.110;7.020;2022-07-29T02:35:50;2.90;;;1.40;;
8219;SDS011;4151;51.110;7.020;2022-07-29T02:38:17;3.60;;;1.90;;
8219;SDS011;4151;51.110;7.020;2022-07-29T02:41:04;3.80;;;1.97;;
8219;SDS011;4151;51.110;7.020;2022-07-29T02:43:36;6.00;;;1.70;;
8219;SDS011;4151;51.110;7.020;2022-07-29T02:46:04;7.23;;;2.10;;
8219;SDS011;4151;51.110;7.020;2022-07-29T02:48:41;3.90;;;2.07;;
8219;SDS011;4151;51.110;7.020;2022-07-29T02:51:16;7.17;;;2.03;;
8219;SDS011;4151;51.110;7.020;2022-07-29T02:53:49;3.50;;;2.10;;
8219;SDS011;4151;51.110;7.020;2022-07-29T02:56:18;6.10;;;2.30;;
8219;SDS011;4151;51.110;7.020;2022-07-29T02:58:55;10.50;;;1.80;;
8219;SDS011;4151;51.110;7.020;2022-07-29T03:01:24;4.60;;;2.07;;
8219;SDS011;4151;51.110;7.020;2022-07-29T03:03:54;12.70;;;1.77;;
8219;SDS011;4151;51.110;7.020;2022-07-29T03:06:20;2.47;;;1.67;;
8219;SDS011;4151;51.110;7.020;2022-07-29T03:08:48;2.73;;;1.90;;
8219;SDS011;4151;51.110;7.020;2022-07-29T03:11:14;4.23;;;1.60;;
8219;SDS011;4151;51.110;7.020;2022-07-29T03:13:41;8.13;;;2.23;;
8219;SDS011;4151;51.110;7.020;2022-07-29T03:16:07;3.80;;;1.73;;
8219;SDS011;4151;51.110;7.020;2022-07-29T03:18:34;9.53;;;2.00;;
8219;SDS011;4151;51.110;7.020;2022-07-29T03:21:01;7.27;;;1.80;;
8219;SDS011;4151;51.110;7.020;2022-07-29T03:23:27;7.77;;;1.80;;
8219;SDS011;4151;51.110;7.020;2022-07-29T03:25:53;4.33;;;1.70;;
8219;SDS011;4151;51.110;7.020;2022-07-29T03:28:19;5.13;;;1.70;;
8219;SDS011;4151;51.110;7.020;2022-07-29T03:30:45;6.27;;;1.83;;
8219;SDS011;4151;51.110;7.020;2022-07-29T03:33:11;10.00;;;1.80;;
8219;SDS011;4151;51.110;7.020;2022-07-29T03:35:37;2.80;;;1.70;;
8219;SDS011;4151;51.110;7.020;2022-07-29T03:38:03;8.93;;;1.90;;
8219;SDS011;4151;51.110;7.020;2022-07-29T03:40:39;12.13;;;2.13;;
8219;SDS011;4151;51.110;7.020;2022-07-29T03:43:09;2.17;;;1.83;;
8219;SDS011;4151;51.110;7.020;2022-07-29T03:45:35;9.23;;;3.63;;
8219;SDS011;4151;51.110;7.020;2022-07-29T03:48:05;11.47;;;2.23;;
8219;SDS011;4151;51.110;7.020;2022-07-29T03:50:34;4.30;;;1.50;;
8219;SDS011;4151;51.110;7.020;2022-07-29T03:53:00;8.70;;;2.80;;
8219;SDS011;4151;51.110;7.020;2022-07-29T03:55:28;3.70;;;2.03;;
8219;SDS011;4151;51.110;7.020;2022-07-29T03:57:57;6.17;;;2.40;;
8219;SDS011;4151;51.110;7.020;2022-07-29T04:00:24;8.07;;;2.20;;
8219;SDS011;4151;51.110;7.020;2022-07-29T04:02:51;15.00;;;2.83;;
8219;SDS011;4151;51.110;7.020;2022-07-29T04:05:17;14.27;;;2.00;;
8219;SDS011;4151;51.110;7.020;2022-07-29T04:07:44;4.17;;;2.00;;
8219;SDS011;4151;51.110;7.020;2022-07-29T04:10:10;6.00;;;2.20;;
8219;SDS011;4151;51.110;7.020;2022-07-29T04:12:36;5.50;;;2.43;;
8219;SDS011;4151;51.110;7.020;2022-07-29T04:15:05;10.70;;;2.93;;
8219;SDS011;4151;51.110;7.020;2022-07-29T04:17:31;12.60;;;2.30;;
8219;SDS011;4151;51.110;7.020;2022-07-29T04:19:56;3.90;;;2.13;;
8219;SDS011;4151;51.110;7.020;2022-07-29T04:22:22;6.40;;;2.47;;
8219;SDS011;4151;51.110;7.020;2022-07-29T04:24:47;6.67;;;2.57;;
8219;SDS011;4151;51.110;7.020;2022-07-29T04:27:13;3.40;;;1.50;;
8219;SDS011;4151;51.110;7.020;2022-07-29T04:29:39;7.63;;;2.20;;
8219;SDS011;4151;51.110;7.020;2022-07-29T04:32:04;7.60;;;1.90;;
8219;SDS011;4151;51.110;7.020;2022-07-29T04:34:30;8.17;;;1.93;;
8219;SDS011;4151;51.110;7.020;2022-07-29T04:36:56;4.20;;;2.00;;
8219;SDS011;4151;51.110;7.020;2022-07-29T04:39:22;4.53;;;2.40;;
8219;SDS011;4151;51.110;7.020;2022-07-29T04:41:47;3.53;;;2.20;;
8219;SDS011;4151;51.110;7.020;2022-07-29T04:44:14;14.13;;;2.20;;
8219;SDS011;4151;51.110;7.020;2022-07-29T04:46:39;11.20;;;1.93;;
8219;SDS011;4151;51.110;7.020;2022-07-29T04:49:05;4.70;;;1.80;;
8219;SDS011;4151;51.110;7.020;2022-07-29T04:51:31;6.70;;;2.20;;
8219;SDS011;4151;51.110;7.020;2022-07-29T04:53:56;6.97;;;2.10;;
8219;SDS011;4151;51.110;7.020;2022-07-29T04:56:22;7.83;;;2.20;;
8219;SDS011;4151;51.110;7.020;2022-07-29T04:58:47;4.90;;;2.43;;
8219;SDS011;4151;51.110;7.020;2022-07-29T05:01:13;5.37;;;1.87;;
8219;SDS011;4151;51.110;7.020;2022-07-29T05:03:39;11.77;;;2.60;;
8219;SDS011;4151;51.110;7.020;2022-07-29T05:06:05;6.53;;;2.40;;
8219;SDS011;4151;51.110;7.020;2022-07-29T05:08:31;2.77;;;2.17;;
8219;SDS011;4151;51.110;7.020;2022-07-29T05:10:56;8.83;;;2.17;;
8219;SDS011;4151;51.110;7.020;2022-07-29T05:13:22;4.87;;;2.70;;
8219;SDS011;4151;51.110;7.020;2022-07-29T05:15:48;3.83;;;2.00;;
8219;SDS011;4151;51.110;7.020;2022-07-29T05:18:13;10.40;;;2.70;;
8219;SDS011;4151;51.110;7.020;2022-07-29T05:20:39;5.43;;;2.50;;
8219;SDS011;4151;51.110;7.020;2022-07-29T05:23:05;3.30;;;2.00;;
8219;SDS011;4151;51.110;7.020;2022-07-29T05:25:30;12.80;;;2.70;;
8219;SDS011;4151;51.110;7.020;2022-07-29T05:27:56;10.30;;;2.53;;
8219;SDS011;4151;51.110;7.020;2022-07-29T05:30:22;5.00;;;2.07;;
8219;SDS011;4151;51.110;7.020;2022-07-29T05:32:48;4.50;;;2.50;;
8219;SDS011;4151;51.110;7.020;2022-07-29T05:35:14;3.60;;;2.40;;
8219;SDS011;4151;51.110;7.020;2022-07-29T05:37:40;9.77;;;2.17;;
8219;SDS011;4151;51.110;7.020;2022-07-29T05:40:06;6.67;;;2.07;;
8219;SDS011;4151;51.110;7.020;2022-07-29T05:42:32;7.53;;;2.70;;
8219;SDS011;4151;51.110;7.020;2022-07-29T05:44:58;8.47;;;2.07;;
8219;SDS011;4151;51.110;7.020;2022-07-29T05:47:24;19.90;;;2.67;;
8219;SDS011;4151;51.110;7.020;2022-07-29T05:49:50;8.53;;;2.23;;
8219;SDS011;4151;51.110;7.020;2022-07-29T05:52:16;3.47;;;1.90;;
8219;SDS011;4151;51.110;7.020;2022-07-29T05:54:41;5.03;;;2.10;;
8219;SDS011;4151;51.110;7.020;2022-07-29T05:57:07;17.93;;;2.50;;
8219;SDS011;4151;51.110;7.020;2022-07-29T05:59:36;3.70;;;1.80;;
8219;SDS011;4151;51.110;7.020;2022-07-29T06:02:03;7.83;;;2.30;;
8219;SDS011;4151;51.110;7.020;2022-07-29T06:04:30;3.70;;;1.60;;
8219;SDS011;4151;51.110;7.020;2022-07-29T06:06:56;4.63;;;1.60;;
8219;SDS011;4151;51.110;7.020;2022-07-29T06:09:22;9.50;;;1.80;;
8219;SDS011;4151;51.110;7.020;2022-07-29T06:11:48;5.53;;;1.90;;
8219;SDS011;4151;51.110;7.020;2022-07-29T06:14:13;7.23;;;2.13;;
8219;SDS011;4151;51.110;7.020;2022-07-29T06:16:39;9.57;;;2.27;;
8219;SDS011;4151;51.110;7.020;2022-07-29T06:19:05;8.53;;;2.10;;
8219;SDS011;4151;51.110;7.020;2022-07-29T06:21:31;9.60;;;2.27;;
8219;SDS011;4151;51.110;7.020;2022-07-29T06:23:56;7.23;;;1.70;;
8219;SDS011;4151;51.110;7.020;2022-07-29T06:26:22;6.33;;;1.60;;
8219;SDS011;4151;51.110;7.020;2022-07-29T06:28:48;7.80;;;1.97;;
8219;SDS011;4151;51.110;7.020;2022-07-29T06:31:13;5.63;;;1.60;;
8219;SDS011;4151;51.110;7.020;2022-07-29T06:33:39;6.67;;;2.03;;
8219;SDS011;4151;51.110;7.020;2022-07-29T06:36:05;9.10;;;3.47;;
8219;SDS011;4151;51.110;7.020;2022-07-29T06:38:31;10.97;;;1.90;;
8219;SDS011;4151;51.110;7.020;2022-07-29T06:40:58;7.77;;;2.10;;
8219;SDS011;4151;51.110;7.020;2022-07-29T06:43:41;5.23;;;1.80;;
8219;SDS011;4151;51.110;7.020;2022-07-29T06:46:08;4.07;;;1.70;;
8219;SDS011;4151;51.110;7.020;2022-07-29T06:48:36;10.43;;;2.00;;
8219;SDS011;4151;51.110;7.020;2022-07-29T06:51:02;6.90;;;1.60;;
8219;SDS011;4151;51.110;7.020;2022-07-29T06:53:29;11.17;;;2.33;;
8219;SDS011;4151;51.110;7.020;2022-07-29T06:55:55;4.70;;;1.80;;
8219;SDS011;4151;51.110;7.020;2022-07-29T06:58:21;3.23;;;1.63;;
8219;SDS011;4151;51.110;7.020;2022-07-29T07:00:47;8.33;;;1.80;;
8219;SDS011;4151;51.110;7.020;2022-07-29T07:03:13;6.00;;;2.30;;
8219;SDS011;4151;51.110;7.020;2022-07-29T07:05:39;3.07;;;1.97;;
8219;SDS011;4151;51.110;7.020;2022-07-29T07:08:05;6.60;;;2.43;;
8219;SDS011;4151;51.110;7.020;2022-07-29T07:10:32;9.30;;;1.90;;
8219;SDS011;4151;51.110;7.020;2022-07-29T07:12:58;3.43;;;2.00;;
8219;SDS011;4151;51.110;7.020;2022-07-29T07:15:24;3.83;;;1.70;;
8219;SDS011;4151;51.110;7.020;2022-07-29T07:17:50;4.43;;;2.13;;
8219;SDS011;4151;51.110;7.020;2022-07-29T07:20:16;3.07;;;1.40;;
8219;SDS011;4151;51.110;7.020;2022-07-29T07:22:42;3.00;;;2.00;;
8219;SDS011;4151;51.110;7.020;2022-07-29T07:25:08;11.73;;;2.20;;
8219;SDS011;4151;51.110;7.020;2022-07-29T07:27:33;4.10;;;1.90;;
8219;SDS011;4151;51.110;7.020;2022-07-29T07:29:59;4.57;;;2.10;;
8219;SDS011;4151;51.110;7.020;2022-07-29T07:32:25;5.30;;;1.87;;
8219;SDS011;4151;51.110;7.020;2022-07-29T07:34:50;6.53;;;2.00;;
8219;SDS011;4151;51.110;7.020;2022-07-29T07:37:16;3.10;;;1.60;;
8219;SDS011;4151;51.110;7.020;2022-07-29T07:39:44;4.83;;;2.03;;
8219;SDS011;4151;51.110;7.020;2022-07-29T07:42:09;5.90;;;2.30;;
8219;SDS011;4151;51.110;7.020;2022-07-29T07:44:37;7.47;;;2.40;;
8219;SDS011;4151;51.110;7.020;2022-07-29T07:47:03;7.93;;;2.63;;
8219;SDS011;4151;51.110;7.020;2022-07-29T07:49:29;7.30;;;2.17;;
8219;SDS011;4151;51.110;7.020;2022-07-29T07:51:55;5.83;;;2.13;;
8219;SDS011;4151;51.110;7.020;2022-07-29T07:54:21;10.83;;;2.50;;
8219;SDS011;4151;51.110;7.020;2022-07-29T07:56:46;5.40;;;2.50;;
8219;SDS011;4151;51.110;7.020;2022-07-29T07:59:14;12.83;;;3.10;;
8219;SDS011;4151;51.110;7.020;2022-07-29T08:01:40;5.43;;;2.90;;
8219;SDS011;4151;51.110;7.020;2022-07-29T08:04:06;10.97;;;2.63;;
8219;SDS011;4151;51.110;7.020;2022-07-29T08:06:32;6.00;;;2.50;;
8219;SDS011;4151;51.110;7.020;2022-07-29T08:08:59;6.63;;;3.00;;
8219;SDS011;4151;51.110;7.020;2022-07-29T08:11:26;10.33;;;2.87;;
8219;SDS011;4151;51.110;7.020;2022-07-29T08:13:52;7.70;;;3.30;;
8219;SDS011;4151;51.110;7.020;2022-07-29T08:16:17;7.53;;;2.40;;
8219;SDS011;4151;51.110;7.020;2022-07-29T08:18:44;4.93;;;2.80;;
8219;SDS011;4151;51.110;7.020;2022-07-29T08:21:10;16.33;;;2.30;;
8219;SDS011;4151;51.110;7.020;2022-07-29T08:23:36;10.10;;;2.50;;
8219;SDS011;4151;51.110;7.020;2022-07-29T08:26:10;6.87;;;2.70;;
8219;SDS011;4151;51.110;7.020;2022-07-29T08:28:37;11.23;;;2.53;;
8219;SDS011;4151;51.110;7.020;2022-07-29T08:31:02;18.03;;;6.50;;
8219;SDS011;4151;51.110;7.020;2022-07-29T08:33:28;15.83;;;3.17;;
8219;SDS011;4151;51.110;7.020;2022-07-29T08:35:53;9.00;;;2.50;;
8219;SDS011;4151;51.110;7.020;2022-07-29T08:38:19;4.93;;;2.23;;
8219;SDS011;4151;51.110;7.020;2022-07-29T08:40:45;8.10;;;2.73;;
8219;SDS011;4151;51.110;7.020;2022-07-29T08:43:11;7.77;;;2.37;;
8219;SDS011;4151;51.110;7.020;2022-07-29T08:45:41;4.43;;;2.50;;
8219;SDS011;4151;51.110;7.020;2022-07-29T08:48:10;5.87;;;2.80;;
8219;SDS011;4151;51.110;7.020;2022-07-29T08:50:41;8.33;;;4.20;;
8219;SDS011;4151;51.110;7.020;2022-07-29T08:53:09;12.40;;;3.33;;
8219;SDS011;4151;51.110;7.020;2022-07-29T08:55:38;14.77;;;3.40;;
8219;SDS011;4151;51.110;7.020;2022-07-29T08:58:06;6.97;;;2.80;;
8219;SDS011;4151;51.110;7.020;2022-07-29T09:00:32;6.60;;;2.90;;
8219;SDS011;4151;51.110;7.020;2022-07-29T09:03:01;4.80;;;2.70;;
8219;SDS011;4151;51.110;7.020;2022-07-29T09:05:29;4.97;;;2.77;;
8219;SDS011;4151;51.110;7.020;2022-07-29T09:07:56;9.30;;;3.30;;
8219;SDS011;4151;51.110;7.020;2022-07-29T09:10:22;7.67;;;2.70;;
8219;SDS011;4151;51.110;7.020;2022-07-29T09:12:48;8.23;;;3.43;;
8219;SDS011;4151;51.110;7.020;2022-07-29T09:15:14;6.07;;;2.20;;
8219;SDS011;4151;51.110;7.020;2022-07-29T09:17:40;7.50;;;2.80;;
8219;SDS011;4151;51.110;7.020;2022-07-29T09:20:14;6.37;;;2.30;;
8219;SDS011;4151;51.110;7.020;2022-07-29T09:22:41;5.60;;;2.73;;
8219;SDS011;4151;51.110;7.020;2022-07-29T09:25:08;3.90;;;2.40;;
8219;SDS011;4151;51.110;7.020;2022-07-29T09:27:36;6.70;;;3.10;;
8219;SDS011;4151;51.110;7.020;2022-07-29T09:32:32;5.97;;;2.63;;
8219;SDS011;4151;51.110;7.020;2022-07-29T09:35:18;10.10;;;2.83;;
8219;SDS011;4151;51.110;7.020;2022-07-29T09:37:45;8.00;;;3.20;;
8219;SDS011;4151;51.110;7.020;2022-07-29T09:40:12;3.13;;;2.20;;
8219;SDS011;4151;51.110;7.020;2022-07-29T09:42:40;5.70;;;2.60;;
8219;SDS011;4151;51.110;7.020;2022-07-29T09:45:06;8.37;;;2.70;;
8219;SDS011;4151;51.110;7.020;2022-07-29T09:47:43;10.47;;;2.90;;
8219;SDS011;4151;51.110;7.020;2022-07-29T09:50:10;3.57;;;2.43;;
8219;SDS011;4151;51.110;7.020;2022-07-29T09:52:46;6.53;;;2.80;;
8219;SDS011;4151;51.110;7.020;2022-07-29T09:55:14;10.30;;;2.90;;
8219;SDS011;4151;51.110;7.020;2022-07-29T09:57:40;7.17;;;2.87;;
8219;SDS011;4151;51.110;7.020;2022-07-29T10:00:07;3.17;;;2.00;;
8219;SDS011;4151;51.110;7.020;2022-07-29T10:02:37;9.80;;;2.67;;
8219;SDS011;4151;51.110;7.020;2022-07-29T10:05:05;10.10;;;3.10;;
8219;SDS011;4151;51.110;7.020;2022-07-29T10:07:47;6.00;;;2.70;;
8219;SDS011;4151;51.110;7.020;2022-07-29T10:13:13;4.40;;;2.63;;
8219;SDS011;4151;51.110;7.020;2022-07-29T10:15:39;7.37;;;3.17;;
8219;SDS011;4151;51.110;7.020;2022-07-29T10:18:09;9.37;;;3.70;;
8219;SDS011;4151;51.110;7.020;2022-07-29T10:20:36;7.70;;;3.43;;
8219;SDS011;4151;51.110;7.020;2022-07-29T10:23:03;12.97;;;4.67;;
8219;SDS011;4151;51.110;7.020;2022-07-29T10:25:28;28.87;;;4.43;;
8219;SDS011;4151;51.110;7.020;2022-07-29T10:27:54;16.83;;;5.57;;
8219;SDS011;4151;51.110;7.020;2022-07-29T10:30:21;11.93;;;4.67;;
8219;SDS011;4151;51.110;7.020;2022-07-29T10:33:09;8.03;;;4.17;;
8219;SDS011;4151;51.110;7.020;2022-07-29T10:35:47;12.40;;;4.20;;
8219;SDS011;4151;51.110;7.020;2022-07-29T10:38:29;15.77;;;4.20;;
8219;SDS011;4151;51.110;7.020;2022-07-29T10:43:53;8.73;;;3.87;;
8219;SDS011;4151;51.110;7.020;2022-07-29T10:46:19;12.10;;;3.27;;
8219;SDS011;4151;51.110;7.020;2022-07-29T10:54:16;7.50;;;3.70;;
8219;SDS011;4151;51.110;7.020;2022-07-29T10:56:43;18.67;;;4.03;;
8219;SDS011;4151;51.110;7.020;2022-07-29T11:01:43;12.13;;;4.10;;
8219;SDS011;4151;51.110;7.020;2022-07-29T11:04:09;15.63;;;3.87;;
8219;SDS011;4151;51.110;7.020;2022-07-29T11:17:17;8.80;;;3.70;;
8219;SDS011;4151;51.110;7.020;2022-07-29T11:19:42;9.07;;;4.33;;
8219;SDS011;4151;51.110;7.020;2022-07-29T11:22:09;8.73;;;3.63;;
8219;SDS011;4151;51.110;7.020;2022-07-29T11:24:36;10.60;;;3.50;;
8219;SDS011;4151;51.110;7.020;2022-07-29T11:29:52;9.83;;;3.90;;
8219;SDS011;4151;51.110;7.020;2022-07-29T11:32:20;11.17;;;3.53;;
8219;SDS011;4151;51.110;7.020;2022-07-29T11:34:47;7.53;;;3.10;;
8219;SDS011;4151;51.110;7.020;2022-07-29T11:37:17;14.23;;;3.10;;
8219;SDS011;4151;51.110;7.020;2022-07-29T11:47:35;9.30;;;3.40;;
8219;SDS011;4151;51.110;7.020;2022-07-29T11:50:06;12.97;;;3.23;;
8219;SDS011;4151;51.110;7.020;2022-07-29T11:55:08;7.80;;;2.47;;
8219;SDS011;4151;51.110;7.020;2022-07-29T11:57:37;6.93;;;2.77;;
8219;SDS011;4151;51.110;7.020;2022-07-29T12:00:11;4.63;;;2.40;;
8219;SDS011;4151;51.110;7.020;2022-07-29T12:02:40;5.27;;;2.70;;
8219;SDS011;4151;51.110;7.020;2022-07-29T12:05:07;6.03;;;2.67;;
8219;SDS011;4151;51.110;7.020;2022-07-29T12:07:34;10.63;;;2.90;;
8219;SDS011;4151;51.110;7.020;2022-07-29T12:10:00;5.60;;;2.80;;
8219;SDS011;4151;51.110;7.020;2022-07-29T12:12:27;4.60;;;2.83;;
8219;SDS011;4151;51.110;7.020;2022-07-29T12:14:52;12.37;;;3.23;;
8219;SDS011;4151;51.110;7.020;2022-07-29T12:19:59;4.90;;;2.80;;
8219;SDS011;4151;51.110;7.020;2022-07-29T12:22:30;13.60;;;4.03;;
8219;SDS011;4151;51.110;7.020;2022-07-29T12:25:01;11.27;;;3.07;;
8219;SDS011;4151;51.110;7.020;2022-07-29T12:27:29;8.03;;;2.80;;
8219;SDS011;4151;51.110;7.020;2022-07-29T12:29:55;4.47;;;2.77;;
8219;SDS011;4151;51.110;7.020;2022-07-29T12:32:22;9.90;;;3.23;;
8219;SDS011;4151;51.110;7.020;2022-07-29T12:34:49;4.93;;;2.30;;
8219;SDS011;4151;51.110;7.020;2022-07-29T12:37:15;5.97;;;2.20;;
8219;SDS011;4151;51.110;7.020;2022-07-29T12:39:41;5.13;;;2.37;;
8219;SDS011;4151;51.110;7.020;2022-07-29T12:42:13;5.40;;;2.73;;
8219;SDS011;4151;51.110;7.020;2022-07-29T12:44:44;6.10;;;2.30;;
8219;SDS011;4151;51.110;7.020;2022-07-29T12:47:11;5.00;;;2.67;;
8219;SDS011;4151;51.110;7.020;2022-07-29T12:49:36;6.10;;;2.37;;
8219;SDS011;4151;51.110;7.020;2022-07-29T12:52:22;5.00;;;2.60;;
8219;SDS011;4151;51.110;7.020;2022-07-29T12:54:52;4.23;;;2.43;;
8219;SDS011;4151;51.110;7.020;2022-07-29T12:57:17;9.60;;;2.33;;
8219;SDS011;4151;51.110;7.020;2022-07-29T12:59:43;5.13;;;2.97;;
8219;SDS011;4151;51.110;7.020;2022-07-29T13:02:20;8.83;;;2.40;;
8219;SDS011;4151;51.110;7.020;2022-07-29T13:04:55;7.80;;;2.30;;
8219;SDS011;4151;51.110;7.020;2022-07-29T13:07:26;9.40;;;2.37;;
8219;SDS011;4151;51.110;7.020;2022-07-29T13:09:54;9.97;;;2.97;;
8219;SDS011;4151;51.110;7.020;2022-07-29T13:12:36;8.33;;;2.50;;
8219;SDS011;4151;51.110;7.020;2022-07-29T13:15:12;5.47;;;2.27;;
8219;SDS011;4151;51.110;7.020;2022-07-29T13:17:40;5.90;;;2.53;;
8219;SDS011;4151;51.110;7.020;2022-07-29T13:20:08;7.83;;;2.23;;
8219;SDS011;4151;51.110;7.020;2022-07-29T13:22:37;5.13;;;2.10;;
8219;SDS011;4151;51.110;7.020;2022-07-29T13:25:04;5.67;;;1.83;;
8219;SDS011;4151;51.110;7.020;2022-07-29T13:27:34;7.00;;;2.33;;
8219;SDS011;4151;51.110;7.020;2022-07-29T13:30:03;6.60;;;1.83;;
8219;SDS011;4151;51.110;7.020;2022-07-29T13:32:30;6.20;;;1.70;;
8219;SDS011;4151;51.110;7.020;2022-07-29T13:34:58;3.10;;;1.80;;
8219;SDS011;4151;51.110;7.020;2022-07-29T13:37:25;4.97;;;2.23;;
8219;SDS011;4151;51.110;7.020;2022-07-29T13:39:51;3.67;;;1.53;;
8219;SDS011;4151;51.110;7.020;2022-07-29T13:42:17;3.53;;;2.10;;
8219;SDS011;4151;51.110;7.020;2022-07-29T13:44:43;6.93;;;2.80;;
8219;SDS011;4151;51.110;7.020;2022-07-29T13:47:09;4.63;;;2.80;;
8219;SDS011;4151;51.110;7.020;2022-07-29T13:49:34;5.70;;;2.43;;
8219;SDS011;4151;51.110;7.020;2022-07-29T13:52:01;7.93;;;2.30;;
8219;SDS011;4151;51.110;7.020;2022-07-29T13:54:26;5.70;;;2.10;;
8219;SDS011;4151;51.110;7.020;2022-07-29T13:56:52;5.83;;;2.10;;
8219;SDS011;4151;51.110;7.020;2022-07-29T13:59:18;7.07;;;1.97;;
8219;SDS011;4151;51.110;7.020;2022-07-29T14:01:43;4.20;;;1.87;;
8219;SDS011;4151;51.110;7.020;2022-07-29T14:04:09;3.30;;;1.80;;
8219;SDS011;4151;51.110;7.020;2022-07-29T14:06:35;3.37;;;1.83;;
8219;SDS011;4151;51.110;7.020;2022-07-29T14:09:02;4.87;;;2.20;;
8219;SDS011;4151;51.110;7.020;2022-07-29T14:11:31;3.53;;;2.20;;
8219;SDS011;4151;51.110;7.020;2022-07-29T14:13:57;3.17;;;1.80;;
8219;SDS011;4151;51.110;7.020;2022-07-29T14:16:23;5.70;;;2.30;;
8219;SDS011;4151;51.110;7.020;2022-07-29T14:18:48;4.00;;;2.07;;
8219;SDS011;4151;51.110;7.020;2022-07-29T14:21:14;7.33;;;2.20;;
8219;SDS011;4151;51.110;7.020;2022-07-29T14:23:40;6.20;;;2.40;;
8219;SDS011;4151;51.110;7.020;2022-07-29T14:26:06;3.37;;;1.80;;
8219;SDS011;4151;51.110;7.020;2022-07-29T14:28:31;3.27;;;1.80;;
8219;SDS011;4151;51.110;7.020;2022-07-29T14:30:57;4.83;;;1.93;;
8219;SDS011;4151;51.110;7.020;2022-07-29T14:33:23;6.20;;;2.10;;
8219;SDS011;4151;51.110;7.020;2022-07-29T14:35:48;4.57;;;2.03;;
8219;SDS011;4151;51.110;7.020;2022-07-29T14:38:14;5.13;;;1.67;;
8219;SDS011;4151;51.110;7.020;2022-07-29T14:40:40;4.00;;;2.10;;
8219;SDS011;4151;51.110;7.020;2022-07-29T14:43:05;4.73;;;2.60;;
8219;SDS011;4151;51.110;7.020;2022-07-29T14:45:31;9.53;;;2.60;;
8219;SDS011;4151;51.110;7.020;2022-07-29T14:47:56;5.73;;;2.17;;
8219;SDS011;4151;51.110;7.020;2022-07-29T14:50:22;3.50;;;2.00;;
8219;SDS011;4151;51.110;7.020;2022-07-29T14:52:48;6.03;;;2.30;;
8219;SDS011;4151;51.110;7.020;2022-07-29T14:55:14;2.80;;;1.80;;
8219;SDS011;4151;51.110;7.020;2022-07-29T14:57:39;6.43;;;2.00;;
8219;SDS011;4151;51.110;7.020;2022-07-29T15:00:05;3.17;;;1.90;;
8219;SDS011;4151;51.110;7.020;2022-07-29T15:02:32;5.43;;;2.17;;
8219;SDS011;4151;51.110;7.020;2022-07-29T15:04:58;6.17;;;2.57;;
8219;SDS011;4151;51.110;7.020;2022-07-29T15:07:24;7.05;;;1.95;;
8219;SDS011;4151;51.110;7.020;2022-07-29T15:09:49;2.67;;;1.93;;
8219;SDS011;4151;51.110;7.020;2022-07-29T15:12:15;3.55;;;1.67;;
8219;SDS011;4151;51.110;7.020;2022-07-29T15:14:41;4.05;;;1.70;;
8219;SDS011;4151;51.110;7.020;2022-07-29T15:17:06;2.95;;;1.70;;
8219;SDS011;4151;51.110;7.020;2022-07-29T15:19:32;3.22;;;2.20;;
8219;SDS011;4151;51.110;7.020;2022-07-29T15:21:58;7.70;;;3.20;;
8219;SDS011;4151;51.110;7.020;2022-07-29T15:24:23;3.40;;;2.30;;
8219;SDS011;4151;51.110;7.020;2022-07-29T15:26:49;7.15;;;1.95;;
8219;SDS011;4151;51.110;7.020;2022-07-29T15:29:15;4.50;;;1.88;;
8219;SDS011;4151;51.110;7.020;2022-07-29T15:31:41;2.30;;;1.40;;
8219;SDS011;4151;51.110;7.020;2022-07-29T15:34:07;3.17;;;1.65;;
8219;SDS011;4151;51.110;7.020;2022-07-29T15:36:32;3.80;;;2.00;;
8219;SDS011;4151;51.110;7.020;2022-07-29T15:38:58;8.65;;;2.55;;
8219;SDS011;4151;51.110;7.020;2022-07-29T15:41:24;2.55;;;1.90;;
8219;SDS011;4151;51.110;7.020;2022-07-29T15:43:49;8.73;;;2.20;;
8219;SDS011;4151;51.110;7.020;2022-07-29T15:46:16;4.82;;;2.13;;
8219;SDS011;4151;51.110;7.020;2022-07-29T15:49:02;6.63;;;2.30;;
8219;SDS011;4151;51.110;7.020;2022-07-29T15:51:29;3.83;;;2.10;;
8219;SDS011;4151;51.110;7.020;2022-07-29T15:53:54;4.83;;;2.40;;
8219;SDS011;4151;51.110;7.020;2022-07-29T15:56:20;8.87;;;2.63;;
8219;SDS011;4151;51.110;7.020;2022-07-29T15:58:46;4.63;;;2.10;;
8219;SDS011;4151;51.110;7.020;2022-07-29T16:01:12;4.20;;;2.40;;
8219;SDS011;4151;51.110;7.020;2022-07-29T16:03:37;4.37;;;2.10;;
8219;SDS011;4151;51.110;7.020;2022-07-29T16:06:03;3.57;;;2.00;;